createdAt,value
2019-03-05T00:00:44.289Z,0.47
2019-03-05T00:03:13.388Z,0.50
2019-03-05T00:05:41.714Z,0.50
2019-03-05T00:08:10.002Z,0.50
2019-03-05T00:10:38.383Z,0.60
2019-03-05T00:13:06.751Z,0.60
2019-03-05T00:15:35.149Z,0.50
2019-03-05T00:18:04.479Z,0.60
2019-03-05T00:20:32.850Z,0.60
2019-03-05T00:23:01.164Z,0.50
2019-03-05T00:25:32.662Z,0.47
2019-03-05T00:28:30.040Z,0.50
2019-03-05T00:31:13.563Z,0.50
2019-03-05T00:34:02.873Z,0.50
2019-03-05T00:36:34.346Z,0.70
2019-03-05T00:39:20.620Z,0.67
2019-03-05T00:42:03.999Z,0.70
2019-03-05T00:44:35.489Z,0.65
2019-03-05T00:47:21.854Z,0.53
2019-03-05T00:50:18.886Z,0.60
2019-03-05T00:53:15.848Z,0.57
2019-03-05T00:55:49.783Z,0.60
2019-03-05T00:58:29.595Z,0.50
2019-03-05T01:01:20.857Z,0.50
2019-03-05T01:04:01.475Z,0.50
2019-03-05T01:06:29.911Z,0.40
2019-03-05T01:08:58.650Z,0.40
2019-03-05T01:11:27.106Z,0.50
2019-03-05T01:13:55.760Z,0.50
2019-03-05T01:16:26.103Z,0.50
2019-03-05T01:18:54.395Z,0.50
2019-03-05T01:21:22.756Z,0.60
2019-03-05T01:23:51.143Z,0.60
2019-03-05T01:26:19.442Z,0.53
2019-03-05T01:28:47.825Z,0.60
2019-03-05T01:31:28.269Z,0.55
2019-03-05T01:34:01.019Z,0.40
2019-03-05T01:36:39.888Z,0.50
2019-03-05T01:39:26.642Z,0.50
2019-03-05T01:41:55.081Z,0.50
2019-03-05T01:44:23.476Z,0.70
2019-03-05T01:46:51.911Z,0.50
2019-03-05T01:49:20.669Z,0.47
2019-03-05T01:51:49.023Z,0.60
2019-03-05T01:54:17.356Z,0.70
2019-03-05T01:56:45.659Z,0.90
2019-03-05T01:59:14.011Z,0.60
2019-03-05T02:01:42.395Z,0.40
2019-03-05T02:04:10.694Z,0.67
2019-03-05T02:06:38.998Z,0.70
2019-03-05T02:09:08.837Z,0.50
2019-03-05T02:11:37.148Z,0.60
2019-03-05T02:14:05.668Z,0.47
2019-03-05T02:16:34.060Z,0.50
2019-03-05T02:19:34.002Z,0.70
2019-03-05T02:22:02.447Z,0.57
2019-03-05T02:24:58.034Z,0.65
2019-03-05T02:27:58.453Z,0.80
2019-03-05T02:30:55.411Z,0.80
2019-03-05T02:33:41.799Z,0.50
2019-03-05T02:36:21.981Z,0.70
2019-03-05T02:39:08.461Z,0.50
2019-03-05T02:41:42.462Z,0.87
2019-03-05T02:44:16.630Z,0.50
2019-03-05T02:46:56.813Z,0.80
2019-03-05T02:49:51.272Z,1.02
2019-03-05T02:52:43.939Z,0.60
2019-03-05T02:55:21.834Z,0.60
2019-03-05T02:57:49.102Z,0.80
2019-03-05T03:00:20.326Z,0.90
2019-03-05T03:02:58.766Z,0.60
2019-03-05T03:05:31.211Z,0.77
2019-03-05T03:07:59.513Z,0.80
2019-03-05T03:10:27.881Z,0.70
2019-03-05T03:12:56.189Z,0.87
2019-03-05T03:15:24.579Z,0.77
2019-03-05T03:17:53.240Z,0.87
2019-03-05T03:20:21.672Z,0.80
2019-03-05T03:22:50.118Z,0.57
2019-03-05T03:25:19.459Z,0.50
2019-03-05T03:27:47.835Z,0.60
2019-03-05T03:30:18.741Z,0.70
2019-03-05T03:32:47.048Z,0.60
2019-03-05T03:35:15.987Z,0.60
2019-03-05T03:37:44.457Z,0.70
2019-03-05T03:40:15.610Z,0.50
2019-03-05T03:42:43.973Z,1.00
2019-03-05T03:45:15.257Z,0.73
2019-03-05T03:47:43.759Z,0.60
2019-03-05T03:50:12.198Z,0.60
2019-03-05T03:52:40.514Z,0.60
2019-03-05T03:55:14.489Z,1.13
2019-03-05T03:57:42.872Z,1.10
2019-03-05T04:00:14.309Z,0.80
2019-03-05T04:02:42.688Z,0.67
2019-03-05T04:05:11.123Z,0.83
2019-03-05T04:07:39.509Z,0.53
2019-03-05T04:10:13.458Z,0.73
2019-03-05T04:12:41.763Z,1.10
2019-03-05T04:15:16.074Z,0.83
2019-03-05T04:17:44.450Z,0.90
2019-03-05T04:20:16.349Z,1.13
2019-03-05T04:22:44.631Z,1.00
2019-03-05T04:25:13.029Z,1.50
2019-03-05T04:27:41.618Z,0.50
2019-03-05T04:30:14.003Z,0.63
2019-03-05T04:32:42.725Z,0.60
2019-03-05T04:35:12.959Z,0.60
2019-03-05T04:37:41.258Z,0.70
2019-03-05T04:40:11.792Z,0.70
2019-03-05T04:42:40.188Z,0.80
2019-03-05T04:45:30.809Z,0.70
2019-03-05T04:47:59.564Z,0.77
2019-03-05T04:50:29.505Z,0.80
2019-03-05T04:52:57.890Z,1.30
2019-03-05T04:55:26.183Z,0.63
2019-03-05T04:57:54.862Z,0.60
2019-03-05T05:00:23.824Z,0.67
2019-03-05T05:02:52.135Z,0.70
2019-03-05T05:05:20.429Z,0.50
2019-03-05T05:07:48.751Z,1.00
2019-03-05T05:10:17.132Z,1.00
2019-03-05T05:12:45.443Z,1.00
2019-03-05T05:15:28.202Z,0.57
2019-03-05T05:17:56.565Z,0.73
2019-03-05T05:20:24.959Z,1.03
2019-03-05T05:22:53.540Z,0.70
2019-03-05T05:25:21.925Z,0.77
2019-03-05T05:27:50.287Z,0.63
2019-03-05T05:30:38.432Z,0.70
2019-03-05T05:33:08.097Z,0.60
2019-03-05T05:35:36.505Z,1.20
2019-03-05T05:38:04.989Z,0.60
2019-03-05T05:40:39.238Z,0.60
2019-03-05T05:43:13.471Z,0.70
2019-03-05T05:45:49.586Z,1.20
2019-03-05T05:48:18.052Z,0.90
2019-03-05T05:50:46.417Z,0.70
2019-03-05T05:53:14.777Z,1.00
2019-03-05T05:55:43.226Z,0.97
2019-03-05T05:58:11.524Z,0.83
2019-03-05T06:00:43.987Z,0.80
2019-03-05T06:03:12.345Z,0.90
2019-03-05T06:05:40.647Z,1.10
2019-03-05T06:08:08.967Z,0.90
2019-03-05T06:10:37.262Z,1.07
2019-03-05T06:13:05.662Z,1.17
2019-03-05T06:15:34.298Z,1.02
2019-03-05T06:18:02.590Z,1.27
2019-03-05T06:20:30.914Z,1.10
2019-03-05T06:22:59.218Z,1.20
2019-03-05T06:25:27.603Z,1.17
2019-03-05T06:27:55.892Z,1.03
2019-03-05T06:30:26.646Z,1.00
2019-03-05T06:32:55.012Z,1.00
2019-03-05T06:35:23.327Z,0.88
2019-03-05T06:37:51.633Z,1.20
2019-03-05T06:40:31.265Z,1.00
2019-03-05T06:42:59.560Z,0.70
2019-03-05T06:45:27.890Z,0.70
2019-03-05T06:47:56.187Z,1.00
2019-03-05T06:50:25.823Z,1.03
2019-03-05T06:52:54.283Z,1.00
2019-03-05T06:55:22.642Z,1.20
2019-03-05T06:57:51.024Z,1.00
2019-03-05T07:00:35.481Z,1.47
2019-03-05T07:03:05.739Z,0.80
2019-03-05T07:06:10.194Z,0.60
2019-03-05T07:08:41.782Z,0.70
2019-03-05T07:11:32.868Z,1.13
2019-03-05T07:14:07.296Z,0.90
2019-03-05T07:16:38.776Z,1.17
2019-03-05T07:19:07.409Z,1.22
2019-03-05T07:21:50.540Z,0.70
2019-03-05T07:24:24.932Z,1.47
2019-03-05T07:26:53.415Z,0.77
2019-03-05T07:29:21.714Z,1.03
2019-03-05T07:31:50.090Z,1.10
2019-03-05T07:34:22.574Z,1.07
2019-03-05T07:36:50.955Z,1.00
2019-03-05T07:39:22.324Z,0.80
2019-03-05T07:41:50.730Z,1.00
2019-03-05T07:44:19.552Z,0.90
2019-03-05T07:46:47.868Z,1.27
2019-03-05T07:49:16.353Z,0.80
2019-03-05T07:51:44.666Z,1.20
2019-03-05T07:54:13.048Z,0.80
2019-03-05T07:56:41.337Z,1.20
2019-03-05T07:59:09.649Z,1.05
2019-03-05T08:01:38.086Z,1.07
2019-03-05T08:04:06.398Z,0.90
2019-03-05T08:06:34.678Z,0.60
2019-03-05T08:09:30.821Z,0.95
2019-03-05T08:12:14.193Z,0.73
2019-03-05T08:14:51.158Z,1.00
2019-03-05T08:17:19.521Z,0.60
2019-03-05T08:19:48.198Z,0.83
2019-03-05T08:22:16.575Z,1.00
2019-03-05T08:24:44.939Z,1.00
2019-03-05T08:27:13.337Z,0.83
2019-03-05T08:29:41.703Z,0.93
2019-03-05T08:32:10.092Z,0.70
2019-03-05T08:34:38.386Z,1.03
2019-03-05T08:37:06.756Z,0.55
2019-03-05T08:39:35.071Z,0.70
2019-03-05T08:42:03.369Z,0.67
2019-03-05T08:44:31.678Z,1.07
2019-03-05T08:47:00.036Z,1.00
2019-03-05T08:49:28.417Z,0.80
2019-03-05T08:51:56.714Z,0.90
2019-03-05T08:54:25.335Z,0.77
2019-03-05T08:56:53.626Z,1.00
2019-03-05T08:59:22.405Z,0.90
2019-03-05T09:01:50.703Z,0.83
2019-03-05T09:04:18.995Z,0.93
2019-03-05T09:06:47.308Z,0.80
2019-03-05T09:09:17.449Z,0.90
2019-03-05T09:11:45.757Z,0.73
2019-03-05T09:14:14.049Z,1.32
2019-03-05T09:16:42.428Z,1.00
2019-03-05T09:19:11.100Z,0.53
2019-03-05T09:21:39.411Z,0.50
2019-03-05T09:24:07.774Z,1.00
2019-03-05T09:26:36.306Z,0.90
2019-03-05T09:29:05.340Z,0.60
2019-03-05T09:31:33.673Z,0.90
2019-03-05T09:34:01.965Z,0.87
2019-03-05T09:36:30.327Z,1.03
2019-03-05T09:38:58.645Z,0.80
2019-03-05T09:41:26.985Z,0.90
2019-03-05T09:43:55.294Z,0.90
2019-03-05T09:46:23.594Z,0.53
2019-03-05T09:48:51.937Z,0.80
2019-03-05T09:51:20.585Z,0.60
2019-03-05T09:53:48.950Z,0.90
2019-03-05T09:56:17.271Z,0.60
2019-03-05T09:58:45.574Z,0.70
2019-03-05T10:01:13.885Z,0.60
2019-03-05T10:03:42.485Z,0.90
2019-03-05T10:06:11.038Z,0.80
2019-03-05T10:08:39.401Z,0.70
2019-03-05T10:11:07.943Z,0.60
2019-03-05T10:13:36.256Z,1.03
2019-03-05T10:16:05.193Z,0.63
2019-03-05T10:18:33.513Z,0.90
2019-03-05T10:21:02.745Z,0.60
2019-03-05T10:23:31.129Z,0.70
2019-03-05T10:25:59.427Z,1.13
2019-03-05T10:28:28.675Z,0.60
2019-03-05T10:30:57.037Z,0.60
2019-03-05T10:33:25.404Z,0.88
2019-03-05T10:35:54.268Z,0.65
2019-03-05T10:38:22.777Z,0.60
2019-03-05T10:40:53.699Z,0.50
2019-03-05T10:43:21.998Z,0.90
2019-03-05T10:45:50.675Z,0.60
2019-03-05T10:48:20.718Z,0.70
2019-03-05T10:50:49.204Z,0.80
2019-03-05T10:53:17.791Z,1.17
2019-03-05T10:55:46.158Z,0.80
2019-03-05T10:58:16.411Z,0.73
2019-03-05T11:00:53.074Z,0.87
2019-03-05T11:03:23.623Z,0.60
2019-03-05T11:05:51.987Z,0.60
2019-03-05T11:08:24.072Z,0.80
2019-03-05T11:10:53.374Z,0.67
2019-03-05T11:13:21.774Z,0.60
2019-03-05T11:15:53.245Z,0.50
2019-03-05T11:18:29.455Z,0.50
2019-03-05T11:20:51.947Z,0.70
2019-03-05T11:23:20.312Z,0.60
2019-03-05T11:25:48.696Z,0.93
2019-03-05T11:28:17.140Z,0.80
2019-03-05T11:30:45.530Z,0.55
2019-03-05T11:33:14.096Z,0.60
2019-03-05T11:35:42.626Z,0.70
2019-03-05T11:38:10.922Z,0.50
2019-03-05T11:40:39.763Z,0.50
2019-03-05T11:43:10.925Z,0.70
2019-03-05T11:45:40.814Z,0.60
2019-03-05T11:48:09.259Z,0.70
2019-03-05T11:50:37.563Z,0.73
2019-03-05T11:53:06.298Z,0.57
2019-03-05T11:55:34.989Z,0.90
2019-03-05T11:58:03.283Z,0.77
2019-03-05T12:00:43.848Z,0.70
2019-03-05T12:03:12.520Z,1.00
2019-03-05T12:05:40.894Z,0.87
2019-03-05T12:08:09.259Z,0.70
2019-03-05T12:10:37.649Z,0.80
2019-03-05T12:13:06.011Z,0.70
2019-03-05T12:15:39.871Z,0.97
2019-03-05T12:18:08.558Z,0.60
2019-03-05T12:20:36.931Z,0.60
2019-03-05T12:23:06.695Z,0.67
2019-03-05T12:25:39.726Z,0.90
2019-03-05T12:28:10.386Z,0.70
2019-03-05T12:30:36.811Z,0.62
2019-03-05T12:33:06.577Z,0.70
2019-03-05T12:35:35.682Z,0.60
2019-03-05T12:38:04.902Z,0.60
2019-03-05T12:40:33.200Z,0.90
2019-03-05T12:43:01.566Z,1.40
2019-03-05T12:45:30.278Z,0.70
2019-03-05T12:47:58.572Z,0.60
2019-03-05T12:50:35.383Z,0.80
2019-03-05T12:53:03.823Z,0.60
2019-03-05T12:55:32.848Z,0.70
2019-03-05T12:58:01.633Z,0.80
2019-03-05T13:00:34.981Z,0.90
2019-03-05T13:03:04.005Z,0.70
2019-03-05T13:05:32.562Z,0.70
2019-03-05T13:08:01.271Z,0.68
2019-03-05T13:10:36.111Z,0.80
2019-03-05T13:13:04.066Z,0.60
2019-03-05T13:15:42.545Z,0.90
2019-03-05T13:18:10.832Z,0.70
2019-03-05T13:20:39.148Z,0.60
2019-03-05T13:23:09.537Z,0.60
2019-03-05T13:25:38.434Z,0.67
2019-03-05T13:28:06.972Z,0.60
2019-03-05T13:30:35.280Z,0.70
2019-03-05T13:33:03.656Z,0.60
2019-03-05T13:35:32.342Z,0.50
2019-03-05T13:38:06.897Z,0.70
2019-03-05T13:40:34.261Z,1.07
2019-03-05T13:43:03.512Z,0.60
2019-03-05T13:45:32.082Z,0.80
2019-03-05T13:48:23.561Z,0.70
2019-03-05T13:50:58.851Z,0.70
2019-03-05T13:53:39.103Z,0.60
2019-03-05T13:56:13.387Z,0.62
2019-03-05T13:58:50.447Z,0.80
2019-03-05T14:01:19.229Z,0.53
2019-03-05T14:03:51.073Z,0.57
2019-03-05T14:06:45.118Z,0.73
2019-03-05T14:09:12.923Z,0.73
2019-03-05T14:11:42.224Z,0.70
2019-03-05T14:14:13.713Z,0.70
2019-03-05T14:16:42.206Z,0.50
2019-03-05T14:19:10.856Z,0.83
2019-03-05T14:21:39.266Z,1.00
2019-03-05T14:24:07.627Z,0.70
2019-03-05T14:26:36.045Z,0.60
2019-03-05T14:29:04.352Z,0.60
2019-03-05T14:31:33.053Z,0.80
2019-03-05T14:34:01.500Z,0.50
2019-03-05T14:36:30.153Z,0.63
2019-03-05T14:38:58.866Z,1.10
2019-03-05T14:41:27.200Z,0.50
2019-03-05T14:43:55.787Z,0.77
2019-03-05T14:46:24.139Z,0.80
2019-03-05T14:48:52.455Z,0.87
2019-03-05T14:51:20.750Z,0.50
2019-03-05T14:53:49.439Z,0.87
2019-03-05T14:56:18.024Z,0.50
2019-03-05T14:58:46.542Z,0.60
2019-03-05T15:01:14.868Z,0.87
2019-03-05T15:03:43.240Z,0.93
2019-03-05T15:06:11.650Z,0.80
2019-03-05T15:08:40.010Z,0.60
2019-03-05T15:11:08.330Z,0.70
2019-03-05T15:13:36.641Z,0.60
2019-03-05T15:16:05.014Z,0.90
2019-03-05T15:18:33.323Z,0.67
2019-03-05T15:21:01.631Z,0.60
2019-03-05T15:23:29.926Z,0.50
2019-03-05T15:25:58.236Z,0.60
2019-03-05T15:28:26.566Z,0.50
2019-03-05T15:30:54.877Z,0.50
2019-03-05T15:33:23.246Z,0.63
2019-03-05T15:35:51.580Z,0.60
2019-03-05T15:38:19.899Z,0.50
2019-03-05T15:40:48.233Z,0.70
2019-03-05T15:43:16.521Z,0.50
2019-03-05T15:45:44.933Z,0.40
2019-03-05T15:48:13.203Z,1.10
2019-03-05T15:50:41.517Z,1.10
2019-03-05T15:53:09.846Z,0.60
2019-03-05T15:55:38.345Z,0.50
2019-03-05T15:58:07.344Z,0.57
2019-03-05T16:00:36.042Z,0.90
2019-03-05T16:03:04.402Z,0.60
2019-03-05T16:05:32.862Z,0.75
2019-03-05T16:08:01.580Z,0.63
2019-03-05T16:10:30.166Z,0.60
2019-03-05T16:12:58.487Z,1.12
2019-03-05T16:15:26.946Z,0.77
2019-03-05T16:17:55.796Z,0.70
2019-03-05T16:20:25.893Z,0.90
2019-03-05T16:22:56.559Z,0.50
2019-03-05T16:25:35.797Z,1.23
2019-03-05T16:28:06.408Z,0.50
2019-03-05T16:30:45.292Z,0.63
2019-03-05T16:33:24.229Z,0.70
2019-03-05T16:35:56.969Z,0.60
2019-03-05T16:38:33.030Z,0.60
2019-03-05T16:41:17.017Z,0.50
2019-03-05T16:43:58.833Z,0.50
2019-03-05T16:46:28.870Z,0.40
2019-03-05T16:48:58.852Z,1.50
2019-03-05T16:51:31.450Z,1.20
2019-03-05T16:54:04.419Z,0.80
2019-03-05T16:56:34.432Z,0.50
2019-03-05T16:59:10.506Z,0.43
2019-03-05T17:01:43.270Z,0.67
2019-03-05T17:04:21.896Z,0.68
2019-03-05T17:06:54.775Z,1.73
2019-03-05T17:09:25.166Z,0.73
2019-03-05T17:11:55.382Z,0.50
2019-03-05T17:14:23.737Z,0.50
2019-03-05T17:16:52.122Z,0.90
2019-03-05T17:19:20.492Z,0.50
2019-03-05T17:21:49.499Z,0.70
2019-03-05T17:24:18.407Z,0.55
2019-03-05T17:26:47.077Z,0.90
2019-03-05T17:29:15.377Z,0.62
2019-03-05T17:31:43.667Z,0.70
2019-03-05T17:34:12.044Z,0.80
2019-03-05T17:36:40.514Z,0.77
2019-03-05T17:39:11.208Z,0.60
2019-03-05T17:41:39.573Z,1.12
2019-03-05T17:44:07.978Z,1.27
2019-03-05T17:46:36.268Z,0.60
2019-03-05T17:49:05.079Z,0.50
2019-03-05T17:51:33.368Z,1.47
2019-03-05T17:54:01.762Z,0.70
2019-03-05T17:56:30.060Z,1.33
2019-03-05T17:58:58.353Z,0.50
2019-03-05T18:01:27.183Z,0.73
2019-03-05T18:03:55.474Z,0.60
2019-03-05T18:06:23.796Z,0.60
2019-03-05T18:08:52.097Z,0.57
2019-03-05T18:11:20.430Z,1.27
2019-03-05T18:13:49.092Z,0.77
2019-03-05T18:16:17.392Z,0.80
2019-03-05T18:18:45.704Z,0.55
2019-03-05T18:21:14.437Z,0.50
2019-03-05T18:23:42.820Z,0.97
2019-03-05T18:26:11.308Z,0.80
2019-03-05T18:28:39.635Z,0.90
2019-03-05T18:31:07.937Z,1.07
2019-03-05T18:33:36.271Z,0.70
2019-03-05T18:36:04.637Z,1.27
2019-03-05T18:38:33.321Z,0.70
2019-03-05T18:41:01.712Z,0.67
2019-03-05T18:43:30.078Z,0.70
2019-03-05T18:45:58.764Z,0.80
2019-03-05T18:48:27.070Z,0.80
2019-03-05T18:50:55.838Z,0.50
2019-03-05T18:53:24.154Z,0.70
2019-03-05T18:55:52.555Z,0.70
2019-03-05T18:58:20.853Z,0.63
2019-03-05T19:00:49.223Z,0.60
2019-03-05T19:03:19.479Z,0.70
2019-03-05T19:05:48.597Z,1.20
2019-03-05T19:08:16.976Z,0.80
2019-03-05T19:10:45.267Z,0.70
2019-03-05T19:13:14.603Z,0.95
2019-03-05T19:15:42.903Z,3.67
2019-03-05T19:18:11.288Z,0.80
2019-03-05T19:20:40.007Z,0.73
2019-03-05T19:23:08.426Z,1.10
2019-03-05T19:25:39.642Z,0.63
2019-03-05T19:28:08.420Z,1.13
2019-03-05T19:30:38.757Z,1.10
2019-03-05T19:33:07.122Z,0.73
2019-03-05T19:35:35.517Z,0.60
2019-03-05T19:38:03.886Z,0.60
2019-03-05T19:40:38.314Z,0.60
2019-03-05T19:43:07.632Z,0.70
2019-03-05T19:45:35.920Z,0.77
2019-03-05T19:48:04.801Z,0.70
2019-03-05T19:50:33.159Z,0.60
2019-03-05T19:53:01.548Z,0.70
2019-03-05T19:55:33.058Z,0.50
2019-03-05T19:58:17.512Z,0.83
2019-03-05T20:01:11.015Z,0.50
2019-03-05T20:03:39.412Z,0.80
2019-03-05T20:06:07.790Z,0.60
2019-03-05T20:08:39.911Z,0.50
2019-03-05T20:11:06.788Z,0.50
2019-03-05T20:13:35.223Z,1.22
2019-03-05T20:16:04.980Z,0.50
2019-03-05T20:18:33.610Z,2.83
2019-03-05T20:21:01.922Z,0.78
2019-03-05T20:23:30.285Z,1.25
2019-03-05T20:25:58.782Z,0.77
2019-03-05T20:28:27.142Z,0.70
2019-03-05T20:30:55.507Z,0.70
2019-03-05T20:33:24.364Z,0.60
2019-03-05T20:35:53.107Z,0.60
2019-03-05T20:38:21.482Z,0.67
2019-03-05T20:40:49.773Z,0.50
2019-03-05T20:43:18.453Z,0.70
2019-03-05T20:45:55.730Z,0.60
2019-03-05T20:48:24.044Z,0.50
2019-03-05T20:50:52.337Z,0.60
2019-03-05T20:53:21.098Z,0.60
2019-03-05T20:55:49.466Z,1.00
2019-03-05T20:58:18.167Z,1.33
2019-03-05T21:00:46.863Z,1.00
2019-03-05T21:03:15.167Z,1.10
2019-03-05T21:05:46.085Z,1.57
2019-03-05T21:08:14.515Z,1.60
2019-03-05T21:10:42.818Z,1.67
2019-03-05T21:13:11.365Z,2.03
2019-03-05T21:15:39.758Z,2.37
2019-03-05T21:18:19.557Z,1.53
2019-03-05T21:20:48.552Z,2.37
2019-03-05T21:23:17.208Z,2.40
2019-03-05T21:25:45.573Z,2.17
2019-03-05T21:28:14.578Z,2.37
2019-03-05T21:30:42.929Z,2.40
2019-03-05T21:33:11.291Z,2.80
2019-03-05T21:35:40.056Z,2.43
2019-03-05T21:38:08.440Z,2.17
2019-03-05T21:40:36.771Z,2.60
2019-03-05T21:43:05.068Z,2.40
2019-03-05T21:45:41.998Z,2.42
2019-03-05T21:48:10.364Z,2.20
2019-03-05T21:50:38.689Z,2.35
2019-03-05T21:53:07.343Z,2.60
2019-03-05T21:55:35.715Z,2.27
2019-03-05T21:58:04.095Z,1.43
2019-03-05T22:00:35.397Z,1.30
2019-03-05T22:03:04.052Z,0.90
2019-03-05T22:05:32.414Z,0.90
2019-03-05T22:08:00.733Z,1.60
2019-03-05T22:10:29.495Z,1.77
2019-03-05T22:12:57.881Z,0.83
2019-03-05T22:15:28.115Z,0.97
2019-03-05T22:17:56.427Z,1.00
2019-03-05T22:20:24.816Z,0.88
2019-03-05T22:22:53.174Z,0.97
2019-03-05T22:25:25.338Z,0.90
2019-03-05T22:27:53.624Z,1.00
2019-03-05T22:30:24.640Z,1.00
2019-03-05T22:32:53.092Z,1.30
2019-03-05T22:35:21.734Z,1.30
2019-03-05T22:37:50.072Z,1.13
2019-03-05T22:40:20.692Z,1.17
2019-03-05T22:42:48.986Z,1.45
2019-03-05T22:45:20.011Z,1.30
2019-03-05T22:47:49.633Z,1.47
2019-03-05T22:50:18.184Z,1.60
2019-03-05T22:52:46.643Z,1.27
2019-03-05T22:55:16.005Z,1.40
2019-03-05T22:57:45.036Z,1.67
2019-03-05T23:00:36.213Z,1.90
2019-03-05T23:03:06.783Z,1.40
2019-03-05T23:05:35.180Z,1.23
2019-03-05T23:08:03.799Z,1.50
2019-03-05T23:10:32.539Z,1.33
2019-03-05T23:13:00.925Z,1.30
2019-03-05T23:15:29.714Z,1.90
2019-03-05T23:17:58.206Z,1.23
2019-03-05T23:20:26.840Z,1.40
2019-03-05T23:22:55.175Z,1.30
2019-03-05T23:25:23.534Z,1.70
2019-03-05T23:27:51.917Z,1.92
2019-03-05T23:30:21.965Z,1.90
2019-03-05T23:32:53.913Z,1.67
2019-03-05T23:35:22.491Z,2.10
2019-03-05T23:37:51.031Z,2.47
2019-03-05T23:40:19.417Z,2.50
2019-03-05T23:42:48.059Z,2.63
2019-03-05T23:45:18.995Z,3.17
2019-03-05T23:47:47.365Z,3.53
2019-03-05T23:50:17.295Z,3.40
2019-03-05T23:52:45.983Z,4.47
2019-03-05T23:55:15.000Z,5.17
2019-03-05T23:57:44.107Z,5.90
